Time;durP1;ratioP1;P1;durP2;ratioP2;P2;SDS_P1;SDS_P2;PMS_P1;PMS_P2;Temp;Humidity;BMP_temperature;BMP_pressure;BME280_temperature;BME280_humidity;BME280_pressure;Samples;Min_cycle;Max_cycle;Signal;HPM_P1;HPM_P2
2023/01/23 00:00:06;;;;;;;5.90;5.40;;;16.10;53.10;17.00;102452.00;;;;5012056;28;20746;-46
2023/01/23 00:02:31;;;;;;;5.67;5.17;;;16.10;53.10;17.00;102466.00;;;;5011302;28;20253;-47
2023/01/23 00:04:57;;;;;;;5.57;5.13;;;16.10;53.10;17.00;102467.00;;;;5012027;28;20647;-46
2023/01/23 00:07:23;;;;;;;5.93;5.33;;;16.00;53.00;17.00;102454.00;;;;5011646;28;20723;-46
2023/01/23 00:09:48;;;;;;;5.90;5.40;;;16.00;53.10;16.90;102464.00;;;;5011675;28;20728;-48
2023/01/23 00:12:15;;;;;;;6.23;5.67;;;16.00;53.10;16.90;102452.00;;;;5011041;28;20637;-47
2023/01/23 00:14:40;;;;;;;5.13;4.73;;;16.00;53.10;16.90;102464.00;;;;5011549;28;20251;-46
2023/01/23 00:17:06;;;;;;;5.97;5.47;;;16.00;53.10;16.90;102471.00;;;;5011594;28;20182;-52
2023/01/23 00:19:32;;;;;;;5.90;5.40;;;16.00;53.10;16.90;102474.00;;;;5011615;28;20199;-47
2023/01/23 00:21:59;;;;;;;5.87;5.47;;;16.00;53.20;16.90;102460.00;;;;5011256;28;20672;-48
2023/01/23 00:24:26;;;;;;;5.70;5.30;;;15.90;53.10;16.90;102464.00;;;;5011669;28;20287;-49
2023/01/23 00:26:52;;;;;;;5.63;5.23;;;15.90;53.10;16.80;102469.00;;;;5011337;28;20250;-47
2023/01/23 00:29:17;;;;;;;5.90;5.40;;;15.90;53.10;16.80;102457.00;;;;5011180;28;20199;-47
2023/01/23 00:31:43;;;;;;;5.80;5.30;;;15.90;53.10;16.80;102474.00;;;;5010566;28;20184;-47
2023/01/23 00:34:13;;;;;;;5.53;5.13;;;15.90;53.20;16.80;102460.00;;;;5010775;28;20196;-48
2023/01/23 00:36:41;;;;;;;6.00;5.50;;;15.80;53.20;16.80;102460.00;;;;5009967;28;20251;-49
2023/01/23 00:39:15;;;;;;;5.50;5.10;;;15.80;53.90;16.70;102465.00;;;;5011086;28;20207;-46
2023/01/23 00:41:41;;;;;;;5.53;5.10;;;15.80;53.20;16.70;102462.00;;;;5010591;28;20262;-46
2023/01/23 00:44:06;;;;;;;5.77;5.27;;;15.80;53.20;16.70;102460.00;;;;5016272;28;20591;-47
2023/01/23 00:46:33;;;;;;;5.20;4.80;;;15.80;53.20;16.70;102466.00;;;;5011812;28;20282;-47
2023/01/23 00:48:59;;;;;;;5.60;5.20;;;15.80;53.30;16.70;102469.00;;;;5010859;28;20233;-46
2023/01/23 00:51:25;;;;;;;5.20;4.80;;;15.70;53.20;16.60;102471.00;;;;5009617;28;20179;-45
2023/01/23 00:53:50;;;;;;;5.40;4.90;;;15.70;53.20;16.60;102454.00;;;;5010917;28;20199;-47
2023/01/23 00:56:16;;;;;;;5.73;5.23;;;15.70;53.20;16.60;102461.00;;;;5010953;28;20176;-46
2023/01/23 00:58:42;;;;;;;5.57;5.17;;;15.70;53.20;16.60;102469.00;;;;5009442;28;20196;-48
2023/01/23 01:01:08;;;;;;;5.80;5.30;;;15.70;53.20;16.60;102472.00;;;;5010765;28;20263;-47
2023/01/23 01:03:34;;;;;;;5.53;5.13;;;15.70;53.20;16.60;102470.00;;;;5010165;28;20255;-47
2023/01/23 01:06:00;;;;;;;5.90;5.40;;;15.60;53.20;16.50;102479.00;;;;5010646;28;20176;-48
2023/01/23 01:08:25;;;;;;;5.87;5.37;;;15.60;53.20;16.50;102469.00;;;;5010157;28;20238;-47
2023/01/23 01:10:51;;;;;;;6.03;5.53;;;15.60;53.20;16.50;102470.00;;;;5010591;28;20175;-46
2023/01/23 01:13:20;;;;;;;5.80;5.30;;;15.60;53.20;16.50;102486.00;;;;5009907;28;20231;-46
2023/01/23 01:15:47;;;;;;;5.07;4.67;;;15.50;53.20;16.50;102475.00;;;;5010436;28;20819;-46
2023/01/23 01:18:13;;;;;;;5.47;5.07;;;15.50;53.20;16.50;102486.00;;;;5010044;28;20317;-47
2023/01/23 01:20:40;;;;;;;6.07;5.57;;;15.50;53.30;16.40;102489.00;;;;5010307;28;20707;-46
2023/01/23 01:23:06;;;;;;;5.37;4.97;;;15.50;53.20;16.40;102496.00;;;;5010104;28;20573;-48
2023/01/23 01:25:32;;;;;;;5.80;5.30;;;15.50;53.20;16.40;102487.00;;;;5010669;28;20185;-48
2023/01/23 01:27:58;;;;;;;5.70;5.20;;;15.50;53.30;16.40;102443.00;;;;5010239;28;20222;-46
2023/01/23 01:30:26;;;;;;;5.70;5.20;;;15.40;53.20;16.40;102486.00;;;;5010104;28;20179;-48
2023/01/23 01:32:53;;;;;;;5.50;5.10;;;15.40;53.20;16.10;102478.00;;;;5009868;28;20267;-47
2023/01/23 01:35:19;;;;;;;5.53;5.13;;;15.50;53.30;16.40;102483.00;;;;5010073;28;20665;-47
2023/01/23 01:37:45;;;;;;;5.37;4.97;;;15.40;53.30;16.30;102483.00;;;;5009864;28;20621;-46
2023/01/23 01:40:15;;;;;;;5.50;5.10;;;15.40;53.30;16.30;102483.00;;;;5009783;28;20198;-49
2023/01/23 01:42:48;;;;;;;5.30;4.80;;;15.40;53.30;16.30;102486.00;;;;5008600;28;20168;-49
2023/01/23 01:46:06;;;;;;;5.40;4.93;;;15.40;53.40;16.30;102483.00;;;;5009154;28;20184;-47
2023/01/23 01:48:41;;;;;;;5.40;5.00;;;15.30;53.30;16.20;102493.00;;;;5009595;28;20242;-46
2023/01/23 01:51:23;;;;;;;5.93;5.43;;;15.30;53.30;16.20;102489.00;;;;5008788;28;20187;-46
2023/01/23 01:54:14;;;;;;;5.67;5.27;;;15.30;53.80;16.20;102491.00;;;;4993006;28;20183;-46
2023/01/23 01:56:52;;;;;;;5.63;5.20;;;15.20;53.80;16.20;102484.00;;;;4992188;28;20198;-47
2023/01/23 01:59:18;;;;;;;5.40;5.00;;;15.20;54.00;16.20;102477.00;;;;4992963;28;20191;-47
2023/01/23 02:01:45;;;;;;;5.73;5.23;;;15.20;53.90;16.20;102486.00;;;;4991594;28;20180;-46
2023/01/23 02:04:10;;;;;;;5.50;5.10;;;15.10;53.90;16.20;102495.00;;;;4992290;28;20204;-47
2023/01/23 02:06:36;;;;;;;5.43;4.90;;;15.20;53.90;16.10;102503.00;;;;5009685;28;20180;-47
2023/01/23 02:09:10;;;;;;;5.90;5.40;;;15.10;53.90;16.10;102502.00;;;;4991884;28;20564;-47
2023/01/23 02:11:36;;;;;;;5.97;5.47;;;15.20;53.80;16.10;102509.00;;;;4993207;28;20164;-49
2023/01/23 02:14:04;;;;;;;6.00;5.20;;;15.10;53.60;16.10;102505.00;;;;5009733;28;20573;-47
2023/01/23 02:16:36;;;;;;;5.53;5.13;;;15.20;53.70;16.10;102502.00;;;;5009601;28;20234;-47
2023/01/23 02:19:03;;;;;;;5.40;5.00;;;15.10;53.60;16.10;102498.00;;;;4992751;28;20222;-46
2023/01/23 02:21:29;;;;;;;5.47;5.07;;;15.10;53.60;16.10;102507.00;;;;4991459;28;20747;-46
2023/01/23 02:24:26;;;;;;;5.50;5.10;;;15.10;53.50;16.10;102505.00;;;;5007845;28;20176;-47
2023/01/23 02:26:52;;;;;;;5.50;5.10;;;15.10;53.50;16.00;102494.00;;;;5009335;28;20242;-46
2023/01/23 02:29:19;;;;;;;5.33;4.90;;;15.10;53.60;16.00;102495.00;;;;5010343;28;20672;-47
2023/01/23 02:31:45;;;;;;;5.30;4.90;;;15.00;53.50;16.00;102504.00;;;;5013373;28;20643;-47
2023/01/23 02:34:12;;;;;;;6.13;5.63;;;15.00;53.40;16.00;102499.00;;;;5010297;28;20207;-47
2023/01/23 02:36:38;;;;;;;6.07;5.57;;;15.00;53.50;16.00;102493.00;;;;5014613;28;20248;-47
2023/01/23 02:39:10;;;;;;;5.90;5.30;;;15.00;53.50;15.90;102508.00;;;;4995394;28;20685;-47
2023/01/23 02:41:44;;;;;;;5.90;5.40;;;15.10;53.60;15.90;102508.00;;;;5008779;28;20613;-47
2023/01/23 02:44:30;;;;;;;5.77;5.33;;;15.00;53.50;15.90;102506.00;;;;5009479;28;20167;-47
2023/01/23 02:47:02;;;;;;;5.67;5.27;;;14.90;53.50;15.90;102496.00;;;;5009208;28;20168;-46
2023/01/23 02:49:28;;;;;;;5.90;5.40;;;15.00;53.50;15.80;102502.00;;;;5009292;28;20274;-47
2023/01/23 02:51:54;;;;;;;5.97;5.47;;;15.00;53.50;15.90;102505.00;;;;5009122;28;20610;-47
2023/01/23 02:54:21;;;;;;;5.70;5.30;;;14.90;53.50;15.90;102510.00;;;;5009745;28;20595;-46
2023/01/23 02:56:47;;;;;;;5.27;4.87;;;14.90;53.50;15.80;102503.00;;;;5010755;28;20186;-48
2023/01/23 03:01:57;;;;;;;5.97;5.47;;;14.90;53.50;15.80;102494.00;;;;5020312;28;20226;-46
2023/01/23 03:04:22;;;;;;;6.20;5.60;;;14.80;53.50;15.80;102499.00;;;;5020896;28;20207;-46
2023/01/23 03:06:48;;;;;;;5.77;5.30;;;14.80;53.40;15.80;102503.00;;;;5017953;28;20659;-47
2023/01/23 03:09:15;;;;;;;5.50;5.00;;;14.80;53.50;15.70;102490.00;;;;5013074;28;20214;-47
2023/01/23 03:11:43;;;;;;;5.60;5.17;;;14.80;53.50;15.70;102489.00;;;;5012621;28;20633;-47
2023/01/23 03:14:12;;;;;;;5.70;5.30;;;14.80;53.50;15.70;102487.00;;;;5012631;28;20200;-47
2023/01/23 03:16:39;;;;;;;5.63;5.23;;;14.80;53.50;15.70;102504.00;;;;5012498;28;20267;-48
2023/01/23 03:19:08;;;;;;;5.50;5.10;;;14.80;53.50;15.70;102491.00;;;;5012526;28;20681;-48
2023/01/23 03:21:39;;;;;;;6.03;5.53;;;14.70;53.50;15.70;102502.00;;;;5012472;28;20213;-45
2023/01/23 03:24:06;;;;;;;6.03;5.53;;;14.80;54.10;15.70;102496.00;;;;5013040;28;20171;-48
2023/01/23 03:26:32;;;;;;;5.50;5.10;;;14.70;53.40;15.70;102491.00;;;;5012451;28;20186;-46
2023/01/23 03:31:42;;;;;;;5.73;5.23;;;14.70;53.40;15.60;102493.00;;;;5012050;28;20167;-45
2023/01/23 03:34:08;;;;;;;5.47;4.97;;;14.60;53.30;15.60;102499.00;;;;5012962;28;20195;-46
2023/01/23 03:36:36;;;;;;;6.10;5.60;;;14.70;53.50;15.60;102493.00;;;;5011003;28;20174;-46
2023/01/23 03:41:48;;;;;;;5.63;5.23;;;14.60;53.40;15.60;102518.00;;;;5012037;28;20588;-46
2023/01/23 03:44:17;;;;;;;5.20;4.80;;;14.60;53.30;15.50;102516.00;;;;5012934;28;20175;-47
2023/01/23 03:46:44;;;;;;;5.20;4.80;;;14.60;53.40;15.50;102516.00;;;;5012639;28;20203;-47
2023/01/23 03:49:10;;;;;;;5.77;5.30;;;14.60;53.40;15.50;102510.00;;;;5012725;28;20517;-46
2023/01/23 03:51:36;;;;;;;5.93;5.43;;;14.60;53.40;15.50;102520.00;;;;5012078;28;20179;-47
2023/01/23 03:54:01;;;;;;;5.70;5.30;;;14.50;53.60;15.50;102525.00;;;;5012070;28;20548;-47
2023/01/23 03:56:27;;;;;;;6.20;5.67;;;14.50;54.90;15.50;102517.00;;;;5011834;28;20167;-46
2023/01/23 03:58:53;;;;;;;5.87;5.23;;;14.50;54.40;15.50;102514.00;;;;5012174;28;20204;-46
2023/01/23 04:01:19;;;;;;;6.23;5.50;;;14.50;54.40;15.40;102511.00;;;;5011856;28;20218;-48
2023/01/23 04:03:44;;;;;;;5.33;4.93;;;14.50;54.80;15.40;102516.00;;;;5018797;28;20190;-46
2023/01/23 04:06:10;;;;;;;5.37;4.97;;;14.50;54.40;15.40;102514.00;;;;5031415;28;20171;-46
2023/01/23 04:08:36;;;;;;;5.90;5.30;;;14.50;54.40;15.40;102515.00;;;;5030689;28;20195;-48
2023/01/23 04:11:07;;;;;;;5.23;4.80;;;14.40;54.20;15.40;102530.00;;;;5031515;28;20714;-48
2023/01/23 04:13:32;;;;;;;6.07;5.37;;;14.40;54.30;15.40;102524.00;;;;5031816;28;20191;-46
2023/01/23 04:15:59;;;;;;;5.80;5.37;;;14.40;54.30;15.40;102526.00;;;;5031628;28;20160;-47
2023/01/23 04:18:25;;;;;;;6.57;5.40;;;14.40;54.30;15.40;102523.00;;;;5033369;28;20187;-47
2023/01/23 04:20:50;;;;;;;5.37;4.87;;;14.40;54.20;15.30;102520.00;;;;5035027;28;20265;-47
2023/01/23 04:23:16;;;;;;;5.23;4.80;;;14.40;54.30;15.30;102514.00;;;;5031074;28;20201;-46
2023/01/23 04:25:42;;;;;;;5.80;5.30;;;14.40;54.30;15.30;102524.00;;;;5030928;28;20175;-46
2023/01/23 04:28:07;;;;;;;5.17;4.77;;;14.40;54.20;15.30;102520.00;;;;5031817;28;20167;-47
2023/01/23 04:30:33;;;;;;;5.30;4.80;;;14.40;54.30;15.30;102516.00;;;;5032343;28;20518;-46
2023/01/23 04:32:59;;;;;;;5.33;4.93;;;14.40;54.20;15.30;102529.00;;;;5030824;28;20195;-46
2023/01/23 04:35:25;;;;;;;5.30;4.90;;;14.40;54.30;15.30;102520.00;;;;5030069;28;20325;-47
2023/01/23 04:37:50;;;;;;;5.50;5.10;;;14.30;54.20;15.20;102520.00;;;;5031253;28;20171;-46
2023/01/23 04:40:16;;;;;;;5.20;4.70;;;14.30;54.10;15.20;102523.00;;;;5031199;28;20915;-46
2023/01/23 04:42:42;;;;;;;5.60;5.17;;;14.30;54.20;15.20;102523.00;;;;5030695;28;20177;-46
2023/01/23 04:45:08;;;;;;;5.13;4.73;;;14.30;54.10;15.20;102510.00;;;;5031004;28;20186;-46
2023/01/23 04:47:34;;;;;;;5.40;4.90;;;14.30;54.00;15.20;102522.00;;;;5031881;28;20175;-45
2023/01/23 04:50:00;;;;;;;5.20;4.80;;;14.20;53.90;15.20;102513.00;;;;5031579;28;20201;-47
2023/01/23 04:52:25;;;;;;;5.80;5.20;;;14.30;54.00;15.20;102513.00;;;;5031187;28;20175;-46
2023/01/23 04:54:51;;;;;;;5.00;4.60;;;14.20;53.90;15.20;102511.00;;;;5031588;28;20163;-46
2023/01/23 04:57:18;;;;;;;4.90;4.50;;;14.20;54.10;15.10;102515.00;;;;5031632;28;20171;-47
2023/01/23 04:59:43;;;;;;;5.50;5.07;;;14.10;54.00;15.10;102515.00;;;;5031237;28;20779;-47
2023/01/23 05:02:09;;;;;;;5.80;5.20;;;14.20;54.10;15.10;102511.00;;;;5031060;28;20167;-46
2023/01/23 05:04:35;;;;;;;5.87;5.37;;;14.10;53.70;15.10;102510.00;;;;5024947;28;20175;-46
2023/01/23 05:07:01;;;;;;;6.17;5.67;;;14.10;53.70;15.00;102516.00;;;;5021688;28;20167;-47
2023/01/23 05:09:26;;;;;;;6.50;5.90;;;14.10;53.50;15.00;102527.00;;;;5020645;28;20214;-47
2023/01/23 05:11:52;;;;;;;6.33;5.83;;;14.00;53.40;15.00;102523.00;;;;5019832;28;20180;-47
2023/01/23 05:14:18;;;;;;;6.57;5.83;;;14.00;53.30;15.00;102509.00;;;;5022834;28;20601;-47
2023/01/23 05:16:43;;;;;;;6.10;5.60;;;14.00;53.20;15.00;102509.00;;;;5032605;28;20519;-47
2023/01/23 05:19:09;;;;;;;6.37;5.87;;;14.00;53.10;14.90;102517.00;;;;5033660;28;20191;-47
2023/01/23 05:21:35;;;;;;;6.20;5.70;;;13.90;52.90;14.90;102515.00;;;;5032220;28;20656;-46
2023/01/23 05:24:01;;;;;;;6.67;6.00;;;13.90;52.80;14.90;102518.00;;;;5032021;28;20177;-46
2023/01/23 05:26:26;;;;;;;6.77;6.27;;;13.80;52.60;14.80;102514.00;;;;5031422;28;20202;-46
2023/01/23 05:28:52;;;;;;;7.23;6.60;;;13.80;52.60;14.80;102520.00;;;;5030685;28;20738;-47
2023/01/23 05:31:18;;;;;;;6.93;6.33;;;13.80;52.50;14.80;102523.00;;;;5030675;28;20221;-47
2023/01/23 05:33:44;;;;;;;6.80;6.30;;;13.70;52.30;14.80;102519.00;;;;5029714;28;20213;-47
2023/01/23 05:36:10;;;;;;;6.87;6.17;;;13.70;52.80;14.80;102533.00;;;;5020652;28;20190;-47
2023/01/23 05:38:35;;;;;;;6.80;6.27;;;13.70;52.00;14.70;102524.00;;;;5016773;28;20191;-47
2023/01/23 05:41:01;;;;;;;6.70;6.20;;;13.70;51.90;14.70;102534.00;;;;5011077;28;20167;-46
2023/01/23 05:43:27;;;;;;;7.10;5.83;;;13.70;52.00;14.70;102535.00;;;;5010701;28;20644;-47
2023/01/23 05:45:53;;;;;;;6.60;6.10;;;13.70;51.60;14.70;102537.00;;;;5011207;28;20279;-46
2023/01/23 05:48:18;;;;;;;5.80;5.30;;;13.70;51.80;14.70;102550.00;;;;5010991;28;20195;-47
2023/01/23 05:50:44;;;;;;;6.27;5.67;;;13.70;51.90;14.70;102540.00;;;;5010846;28;20180;-47
2023/01/23 05:53:10;;;;;;;6.60;5.93;;;13.70;51.90;14.70;102548.00;;;;5009120;28;20199;-47
2023/01/23 05:55:39;;;;;;;5.43;5.03;;;13.70;51.90;14.70;102545.00;;;;5027913;28;20605;-46
2023/01/23 05:58:04;;;;;;;5.20;4.80;;;13.70;52.50;14.70;102552.00;;;;5013003;28;20245;-47
2023/01/23 06:00:30;;;;;;;5.07;4.67;;;13.70;52.70;14.70;102545.00;;;;5012791;28;20262;-47
2023/01/23 06:02:56;;;;;;;4.80;4.40;;;13.80;53.00;14.70;102549.00;;;;5028501;28;20174;-48
2023/01/23 06:05:22;;;;;;;4.63;4.23;;;13.90;53.00;14.80;102551.00;;;;5030059;28;20323;-48
2023/01/23 06:07:48;;;;;;;4.73;4.33;;;14.00;53.10;14.80;102551.00;;;;5032874;28;20206;-47
2023/01/23 06:10:14;;;;;;;5.50;3.90;;;14.00;53.10;14.90;102547.00;;;;5031263;28;20202;-48
2023/01/23 06:12:39;;;;;;;4.10;3.80;;;14.20;53.20;14.90;102524.00;;;;5025312;28;20214;-49
2023/01/23 06:15:06;;;;;;;4.87;3.70;;;14.20;53.20;15.00;102540.00;;;;5023331;28;20179;-51
2023/01/23 06:17:31;;;;;;;3.70;3.40;;;14.30;53.40;15.10;102534.00;;;;5030240;28;20236;-47
2023/01/23 06:19:57;;;;;;;3.80;3.50;;;14.40;53.40;15.20;102543.00;;;;5010991;28;20210;-49
2023/01/23 06:22:23;;;;;;;3.67;3.47;;;14.50;53.50;15.30;102547.00;;;;5011611;28;20735;-48
2023/01/23 06:24:49;;;;;;;3.57;3.27;;;14.60;53.50;15.30;102568.00;;;;5010627;28;20796;-48
2023/01/23 06:27:14;;;;;;;4.43;3.40;;;14.70;53.50;15.40;102563.00;;;;5029564;28;20263;-47
2023/01/23 06:29:40;;;;;;;3.63;3.10;;;14.80;53.50;15.50;102553.00;;;;5029023;28;20217;-47
2023/01/23 06:32:06;;;;;;;3.87;3.20;;;14.90;53.50;15.60;102567.00;;;;5011995;28;20178;-47
2023/01/23 06:34:32;;;;;;;5.07;3.07;;;14.90;53.50;15.70;102580.00;;;;5029785;28;20203;-47
2023/01/23 06:36:58;;;;;;;3.37;3.07;;;15.00;53.60;15.70;102575.00;;;;5029126;28;20163;-49
2023/01/23 06:39:23;;;;;;;3.90;3.30;;;15.00;53.50;15.80;102577.00;;;;5030338;28;20599;-47
2023/01/23 06:41:49;;;;;;;3.10;2.90;;;15.00;53.60;15.80;102580.00;;;;5029080;28;20171;-47
2023/01/23 06:44:15;;;;;;;3.13;2.93;;;15.10;53.60;15.90;102586.00;;;;5027955;28;20647;-49
2023/01/23 06:46:40;;;;;;;3.00;2.70;;;15.10;53.60;15.90;102601.00;;;;5029841;28;20178;-47
2023/01/23 06:49:06;;;;;;;2.63;2.43;;;15.20;53.60;16.00;102603.00;;;;5029327;28;20191;-46
2023/01/23 06:51:32;;;;;;;2.93;2.73;;;15.20;53.70;16.00;102538.00;;;;5029029;28;20170;-48
2023/01/23 06:53:58;;;;;;;3.03;2.83;;;15.20;53.70;16.00;102607.00;;;;5028639;28;20762;-47
2023/01/23 06:56:23;;;;;;;2.93;2.73;;;15.20;53.80;16.10;102622.00;;;;5029181;28;20217;-47
2023/01/23 06:58:49;;;;;;;2.87;2.67;;;15.30;53.90;16.10;102621.00;;;;5029098;28;20281;-48
2023/01/23 07:01:16;;;;;;;3.10;2.80;;;15.30;54.50;16.10;102615.00;;;;5028816;28;20187;-48
2023/01/23 07:03:45;;;;;;;3.00;2.80;;;15.30;53.90;16.10;102627.00;;;;5028531;28;20194;-47
2023/01/23 07:06:11;;;;;;;2.97;2.67;;;15.40;54.00;16.10;102613.00;;;;5029543;28;20179;-49
2023/01/23 07:08:37;;;;;;;2.90;2.70;;;15.40;54.60;16.20;102626.00;;;;5027899;28;20238;-47
2023/01/23 07:11:03;;;;;;;2.80;2.60;;;15.40;54.00;16.20;102624.00;;;;5029562;28;20206;-47
2023/01/23 07:13:29;;;;;;;2.97;2.77;;;15.40;54.00;16.20;102627.00;;;;5026960;28;20253;-48
2023/01/23 07:15:55;;;;;;;2.73;2.53;;;15.40;54.00;16.20;102630.00;;;;5035593;28;20178;-48
2023/01/23 07:18:21;;;;;;;2.90;2.70;;;15.50;54.10;16.30;102644.00;;;;5036175;28;20191;-47
2023/01/23 07:20:47;;;;;;;2.77;2.57;;;15.50;54.10;16.30;102641.00;;;;5034898;28;20179;-47
2023/01/23 07:23:14;;;;;;;3.00;2.80;;;15.50;54.80;16.30;102639.00;;;;5027538;28;20269;-47
2023/01/23 07:25:39;;;;;;;2.97;2.77;;;15.50;54.10;16.30;102642.00;;;;5026989;28;20636;-48
2023/01/23 07:28:05;;;;;;;2.80;2.60;;;15.50;54.30;16.30;102653.00;;;;5028806;28;20229;-47
2023/01/23 07:30:32;;;;;;;2.90;2.70;;;15.50;54.30;16.30;102651.00;;;;5032449;28;20163;-49
2023/01/23 07:32:57;;;;;;;2.90;2.60;;;15.50;54.40;16.30;102665.00;;;;5028158;28;20269;-48
2023/01/23 07:35:24;;;;;;;2.83;2.63;;;15.50;54.40;16.30;102659.00;;;;5027784;28;20645;-47
2023/01/23 07:37:49;;;;;;;2.83;2.63;;;15.50;54.50;16.30;102657.00;;;;5027900;28;20178;-47
2023/01/23 07:40:15;;;;;;;3.00;2.80;;;15.50;54.50;16.30;102668.00;;;;5028986;28;20253;-47
2023/01/23 07:42:41;;;;;;;2.87;2.67;;;15.50;54.50;16.30;102672.00;;;;5024496;28;20391;-48
2023/01/23 07:45:08;;;;;;;3.00;2.80;;;15.50;54.50;16.30;102669.00;;;;5031699;28;20186;-47
2023/01/23 07:47:35;;;;;;;3.00;2.80;;;15.50;54.60;16.30;102673.00;;;;5032316;28;20183;-47
2023/01/23 07:50:01;;;;;;;2.97;2.70;;;15.50;54.70;16.40;102675.00;;;;5031701;28;20195;-47
2023/01/23 07:52:27;;;;;;;2.70;2.50;;;15.50;54.60;16.40;102607.00;;;;5031536;28;20175;-48
2023/01/23 07:54:53;;;;;;;2.90;2.70;;;15.50;54.70;16.40;102662.00;;;;5031668;28;20167;-47
2023/01/23 07:57:18;;;;;;;2.83;2.63;;;15.60;54.80;16.40;102669.00;;;;5032727;28;20171;-47
2023/01/23 07:59:46;;;;;;;2.87;2.63;;;15.50;54.70;16.40;102682.00;;;;5041125;28;20652;-47
2023/01/23 08:02:11;;;;;;;2.80;2.60;;;15.60;54.80;16.40;102681.00;;;;5034469;28;20182;-48
2023/01/23 08:04:37;;;;;;;2.90;2.70;;;15.60;54.80;16.40;102674.00;;;;5032704;28;20178;-47
2023/01/23 08:07:03;;;;;;;2.80;2.50;;;15.60;55.10;16.40;102671.00;;;;5029742;28;20253;-47
2023/01/23 08:09:29;;;;;;;2.90;2.70;;;15.60;54.80;16.40;102677.00;;;;5031439;28;20568;-46
2023/01/23 08:11:55;;;;;;;3.17;2.87;;;15.70;54.90;16.40;102675.00;;;;5031512;28;20163;-47
2023/01/23 08:14:20;;;;;;;3.20;2.90;;;15.60;54.80;16.50;102677.00;;;;5032280;28;20207;-47
2023/01/23 08:16:50;;;;;;;2.60;2.40;;;15.70;55.00;16.50;102679.00;;;;5036079;28;20163;-48
2023/01/23 08:19:16;;;;;;;3.10;2.70;;;15.70;55.00;16.50;102674.00;;;;5033299;28;20195;-47
2023/01/23 08:21:42;;;;;;;3.93;2.70;;;15.70;55.30;16.50;102681.00;;;;5031413;28;20662;-47
2023/01/23 08:24:13;;;;;;;3.10;2.80;;;15.70;55.30;16.50;102690.00;;;;5031704;28;20175;-47
2023/01/23 08:26:39;;;;;;;3.40;2.67;;;15.70;55.30;16.50;102686.00;;;;5030944;28;20167;-46
2023/01/23 08:29:05;;;;;;;2.90;2.70;;;15.70;55.60;16.50;102694.00;;;;5031388;28;20201;-47
2023/01/23 08:31:30;;;;;;;6.67;2.80;;;15.70;55.70;16.50;102687.00;;;;5031512;28;20174;-47
2023/01/23 08:33:56;;;;;;;4.07;2.70;;;15.70;55.70;16.50;102686.00;;;;5031999;28;20568;-47
2023/01/23 08:36:22;;;;;;;4.00;2.83;;;15.70;55.50;16.50;102677.00;;;;5031450;28;20186;-47
2023/01/23 08:38:48;;;;;;;3.10;2.90;;;15.70;55.30;16.50;102679.00;;;;5030613;28;20205;-47
2023/01/23 08:41:14;;;;;;;3.73;3.33;;;15.70;55.30;16.50;102675.00;;;;5031228;28;20691;-47
2023/01/23 08:43:40;;;;;;;3.90;3.43;;;15.70;55.30;16.50;102678.00;;;;5035200;28;20179;-48
2023/01/23 08:46:06;;;;;;;6.23;3.77;;;15.70;55.10;16.50;102683.00;;;;5040391;28;20208;-48
2023/01/23 08:48:34;;;;;;;4.10;3.60;;;15.70;54.90;16.50;102684.00;;;;5041873;28;20669;-47
2023/01/23 08:51:03;;;;;;;6.33;4.27;;;15.70;54.70;16.50;102689.00;;;;5031476;28;20632;-47
2023/01/23 08:53:29;;;;;;;4.40;4.00;;;15.70;54.60;16.50;102688.00;;;;5030634;28;20225;-48
2023/01/23 08:56:16;;;;;;;4.63;4.23;;;15.70;54.50;16.40;102688.00;;;;5030403;28;20191;-47
2023/01/23 08:58:42;;;;;;;4.63;4.23;;;15.70;54.60;16.50;102693.00;;;;5028829;28;20289;-47
2023/01/23 09:01:22;;;;;;;5.17;4.23;;;15.70;54.60;16.50;102693.00;;;;5029825;28;20269;-49
2023/01/23 09:03:48;;;;;;;4.20;3.80;;;15.70;54.50;16.50;102692.00;;;;5030922;28;20217;-48
2023/01/23 09:06:17;;;;;;;4.40;4.00;;;15.70;54.50;16.50;102700.00;;;;5031819;28;20183;-48
2023/01/23 09:08:43;;;;;;;4.30;3.90;;;15.70;54.40;16.50;102695.00;;;;5030609;28;20195;-48
2023/01/23 09:11:09;;;;;;;4.70;4.23;;;15.70;54.40;16.50;102696.00;;;;5030393;28;20177;-47
2023/01/23 09:13:35;;;;;;;4.77;4.37;;;15.70;54.30;16.50;102692.00;;;;5030002;28;20225;-47
2023/01/23 09:16:01;;;;;;;5.13;4.10;;;15.70;54.20;16.50;102691.00;;;;5030355;28;20171;-47
2023/01/23 09:18:26;;;;;;;4.77;4.37;;;15.70;54.10;16.50;102701.00;;;;5030279;28;20240;-48
2023/01/23 09:20:53;;;;;;;4.60;4.20;;;15.70;54.00;16.50;102688.00;;;;5029868;28;20240;-47
2023/01/23 09:23:19;;;;;;;4.77;4.37;;;15.70;53.90;16.50;102699.00;;;;5030177;28;20266;-47
2023/01/23 09:25:44;;;;;;;5.30;4.90;;;15.70;53.80;16.50;102698.00;;;;5028898;28;20614;-46
2023/01/23 09:28:10;;;;;;;4.93;4.53;;;15.80;53.70;16.50;102699.00;;;;5029925;28;20210;-46
2023/01/23 09:30:36;;;;;;;5.70;4.60;;;15.70;53.60;16.50;102697.00;;;;5030223;28;20171;-46
2023/01/23 09:33:02;;;;;;;4.70;4.30;;;15.70;53.50;16.50;102700.00;;;;5030817;28;20294;-47
2023/01/23 09:35:28;;;;;;;5.00;4.50;;;15.70;53.50;16.50;102710.00;;;;5029947;28;20843;-46
2023/01/23 09:37:59;;;;;;;5.50;5.00;;;15.70;53.20;16.50;102700.00;;;;5030446;28;20629;-48
2023/01/23 09:40:50;;;;;;;5.17;4.77;;;15.70;53.20;16.50;102717.00;;;;5029484;28;20275;-46
2023/01/23 09:43:31;;;;;;;5.20;4.70;;;15.70;53.20;16.50;102700.00;;;;5031896;28;20680;-47
2023/01/23 09:46:24;;;;;;;5.10;4.70;;;15.70;53.20;16.50;102713.00;;;;5028189;28;20167;-47
2023/01/23 09:49:12;;;;;;;5.30;4.80;;;15.70;53.20;16.50;102714.00;;;;5028254;28;20209;-46
2023/01/23 09:52:05;;;;;;;5.17;4.67;;;15.70;53.10;16.50;102717.00;;;;5027851;28;20167;-46
2023/01/23 09:54:45;;;;;;;4.93;4.53;;;15.70;53.00;16.50;102725.00;;;;5028162;28;20179;-51
2023/01/23 09:57:22;;;;;;;5.20;4.70;;;15.70;52.90;16.50;102728.00;;;;5029002;28;20209;-46
2023/01/23 10:00:05;;;;;;;5.30;4.90;;;15.70;52.80;16.50;102738.00;;;;5027970;28;20783;-48
2023/01/23 10:02:31;;;;;;;5.57;5.07;;;15.70;52.80;16.50;102725.00;;;;5029170;28;20159;-46
2023/01/23 10:04:57;;;;;;;5.40;4.90;;;15.70;52.70;16.50;102729.00;;;;5027902;28;20185;-46
2023/01/23 10:08:14;;;;;;;5.23;4.80;;;15.70;52.60;16.50;102723.00;;;;5027429;28;20178;-47
2023/01/23 10:10:43;;;;;;;5.43;4.93;;;15.70;52.50;16.50;102728.00;;;;5028749;28;20257;-46
2023/01/23 10:13:43;;;;;;;5.00;4.60;;;15.70;52.50;16.50;102707.00;;;;5028181;28;20273;-47
2023/01/23 10:17:34;;;;;;;5.30;4.80;;;15.70;52.50;16.50;102713.00;;;;5028435;28;20155;-47
2023/01/23 10:20:19;;;;;;;5.20;4.80;;;15.70;52.50;16.50;102723.00;;;;4960516;28;20229;-47
2023/01/23 10:23:23;;;;;;;7.03;4.60;;;15.70;52.70;16.50;102728.00;;;;5012933;28;20167;-47
2023/01/23 10:25:49;;;;;;;5.97;4.47;;;15.70;52.70;16.50;102735.00;;;;5028465;28;20194;-46
2023/01/23 10:28:28;;;;;;;5.63;4.50;;;15.80;53.00;16.50;102734.00;;;;5027271;28;20189;-46
2023/01/23 10:30:58;;;;;;;5.60;4.10;;;15.80;53.00;16.50;102732.00;;;;5028082;28;20167;-46
2023/01/23 10:33:36;;;;;;;7.13;4.23;;;15.80;53.10;16.50;102741.00;;;;5027589;28;20214;-46
2023/01/23 10:36:28;;;;;;;4.40;4.00;;;15.80;53.20;16.50;102736.00;;;;5022620;28;20178;-48
2023/01/23 10:39:02;;;;;;;6.63;4.17;;;15.80;53.30;16.50;102729.00;;;;4991280;28;20208;-47
2023/01/23 10:41:28;;;;;;;4.70;3.83;;;15.80;54.10;16.50;102728.00;;;;5021571;28;21816;-47
2023/01/23 10:43:55;;;;;;;4.20;3.80;;;15.80;54.20;16.60;102732.00;;;;5045664;28;20185;-48
2023/01/23 10:46:36;;;;;;;5.47;4.10;;;15.80;54.20;16.60;102730.00;;;;5030617;28;20258;-46
2023/01/23 10:49:02;;;;;;;4.63;3.70;;;15.90;54.30;16.60;102741.00;;;;5028943;28;20286;-48
2023/01/23 10:51:57;;;;;;;4.10;3.50;;;15.80;54.40;16.60;102727.00;;;;5028598;28;20179;-47
2023/01/23 10:54:25;;;;;;;5.17;3.90;;;15.90;54.60;16.60;102725.00;;;;5022897;28;20284;-47
2023/01/23 10:57:23;;;;;;;3.87;3.57;;;15.90;54.80;16.60;102734.00;;;;5029236;28;20193;-47
2023/01/23 10:59:54;;;;;;;4.00;3.63;;;15.90;54.80;16.60;102730.00;;;;5028675;28;20206;-47
2023/01/23 11:02:31;;;;;;;3.97;3.57;;;15.90;54.80;16.60;102725.00;;;;5027466;28;20187;-49